Aérodrome :
LOGIN :

S'inscrire | Disclaimer

   EN    FR    IT 

 










Légende :    VFR   VFR Marginal   IFR   IFR Intensif   IFR Très Intensif
Visi : 
Plafond : 
>= 8 km
>= 3000ft
5 à 8 km
1000 à 3000 ft
1500m à 5 km
500 à 1000 ft
800 à 1500m
200 à 500 ft
< 800m
< 200 ft
Symboles :   Orages  Brouillard  Fortes neiges  Fortes précipitations  Vent > 20 kt
SIGMETs :   Divers  Orages  Givrage  Turbulence  Onde Orograph.  Cendres Volcan.







- Altitude de l'aérodrome : 325 ft
- Code IATA : POX
- Voir les cartes d'approche


LFPT - Pontoise

DERNIER METAR :
  • 221030Z AUTO 18004KT 1600 -SN BR OVC005 01/M00 Q1006

METARs EXPIRÉS :
  • 221000Z AUTO 18003KT 0900 0750 R05/1200D SN FG OVC005 00/M00 Q1007
  • 220930Z AUTO 18004KT 1100 1000 R05/1300D -SN BR OVC005/// ///TCU M00/M01 Q1007
  • 220900Z AUTO 18003KT 150V210 1000 R05/1300D -SN BR OVC004/// ///TCU M00/M01 Q1007
  • 220830Z AUTO 18006KT 1100 R05/1500U SN BR BKN006/// OVC011/// ///TCU M01/M02 Q1007
  • 220800Z AUTO 17006KT 140V210 1500 1200 R05/1700D SN BR BKN009/// OVC015/// ///TCU M01/M02 Q1007

TAF N/A
ATIS : +33 1 30 30 52 08
Pas de NOTAMs connus pour ce terrain.



MET'MAP, la Météo Aéronautique d'un coup d'oeil ! - Copyright ORBIFLY Décembre 2007 - Disclaimer

ORBIFLY MET'MAP TEAM :

Programmation & Développement : Alexandra Zaïnal
Conception & Développement : Baudouin d'Aumeries
Co-Programmation & Développement : Marc-Olivier Méhu
Soutien technique & logistique : Manuel Goepfert

Contact : metmap@orbifly.com




SOURCES & CREDITS :

   NOAA